createdAt,value
2018-08-14T00:00:52.133Z,100233.30
2018-08-14T00:03:56.406Z,100227.61
2018-08-14T00:07:00.718Z,100232.89
2018-08-14T00:10:06.272Z,100226.34
2018-08-14T00:13:12.568Z,100231.59
2018-08-14T00:16:16.835Z,100228.56
2018-08-14T00:19:21.105Z,100227.20
2018-08-14T00:22:25.470Z,100225.89
2018-08-14T00:25:29.885Z,100229.38
2018-08-14T00:28:34.148Z,100229.78
2018-08-14T00:31:38.518Z,100227.16
2018-08-14T00:34:53.224Z,100226.30
2018-08-14T00:37:57.508Z,100224.12
2018-08-14T00:41:01.761Z,100225.83
2018-08-14T00:44:06.451Z,100221.45
2018-08-14T00:47:11.300Z,100216.16
2018-08-14T00:50:16.340Z,100220.48
2018-08-14T00:53:20.633Z,100222.65
2018-08-14T00:56:24.905Z,100221.34
2018-08-14T00:59:29.243Z,100215.64
2018-08-14T01:02:33.589Z,100213.83
2018-08-14T01:05:37.904Z,100210.75
2018-08-14T01:08:42.195Z,100214.62
2018-08-14T01:11:46.494Z,100198.88
2018-08-14T01:14:50.754Z,100204.08
2018-08-14T01:17:56.000Z,100198.44
2018-08-14T01:21:00.286Z,100200.59
2018-08-14T01:24:04.638Z,100198.44
2018-08-14T01:27:08.952Z,100196.25
2018-08-14T01:30:18.193Z,100198.89
2018-08-14T01:33:22.459Z,100201.11
2018-08-14T01:36:26.873Z,100191.53
2018-08-14T01:39:31.237Z,100195.88
2018-08-14T01:42:35.570Z,100190.67
2018-08-14T01:45:39.856Z,100196.77
2018-08-14T01:48:44.211Z,100188.45
2018-08-14T01:51:49.546Z,100193.30
2018-08-14T01:54:53.836Z,100198.95
2018-08-14T01:57:58.166Z,100204.59
2018-08-14T02:01:02.511Z,100199.78
2018-08-14T02:04:06.776Z,100198.44
2018-08-14T02:07:11.115Z,100201.50
2018-08-14T02:10:20.709Z,100196.20
2018-08-14T02:13:24.991Z,100197.45
2018-08-14T02:16:29.304Z,100197.80
2018-08-14T02:19:33.628Z,100201.66
2018-08-14T02:22:38.480Z,100199.44
2018-08-14T02:25:42.755Z,100195.49
2018-08-14T02:28:47.060Z,100195.49
2018-08-14T02:31:51.430Z,100196.78
2018-08-14T02:34:55.779Z,100191.06
2018-08-14T02:38:00.157Z,100190.22
2018-08-14T02:41:04.498Z,100191.06
2018-08-14T02:44:08.817Z,100193.69
2018-08-14T02:47:13.237Z,100194.59
2018-08-14T02:50:17.871Z,100192.48
2018-08-14T02:53:22.163Z,100195.61
2018-08-14T02:56:26.525Z,100188.22
2018-08-14T02:59:30.917Z,100186.95
2018-08-14T03:02:35.236Z,100189.99
2018-08-14T03:05:39.534Z,100178.70
2018-08-14T03:08:43.855Z,100194.45
2018-08-14T03:11:48.177Z,100191.02
2018-08-14T03:15:00.229Z,100186.30
2018-08-14T03:18:04.649Z,100185.94
2018-08-14T03:21:09.047Z,100192.05
2018-08-14T03:24:13.335Z,100192.55
2018-08-14T03:27:17.684Z,100193.36
2018-08-14T03:30:22.016Z,100198.20
2018-08-14T03:33:26.421Z,100191.23
2018-08-14T03:36:30.743Z,100195.17
2018-08-14T03:39:35.035Z,100200.41
2018-08-14T03:42:39.479Z,100199.10
2018-08-14T03:45:43.760Z,100196.48
2018-08-14T03:48:48.101Z,100195.18
2018-08-14T03:51:52.446Z,100200.43
2018-08-14T03:54:56.744Z,100207.84
2018-08-14T03:58:01.047Z,100212.68
2018-08-14T04:01:05.378Z,100210.52
2018-08-14T04:04:09.646Z,100203.95
2018-08-14T04:07:13.961Z,100208.34
2018-08-14T04:10:18.209Z,100203.95
2018-08-14T04:13:22.559Z,100200.42
2018-08-14T04:16:26.889Z,100206.53
2018-08-14T04:19:31.207Z,100204.30
2018-08-14T04:22:35.492Z,100201.67
2018-08-14T04:25:39.825Z,100199.90
2018-08-14T04:28:44.103Z,100200.26
2018-08-14T04:31:48.464Z,100201.97
2018-08-14T04:34:52.781Z,100206.29
2018-08-14T04:37:57.028Z,100212.73
2018-08-14T04:41:01.415Z,100220.95
2018-08-14T04:44:05.761Z,100223.97
2018-08-14T04:47:10.065Z,100223.06
2018-08-14T04:50:15.053Z,100220.88
2018-08-14T04:53:19.356Z,100217.35
2018-08-14T04:56:23.756Z,100224.81
2018-08-14T04:59:29.025Z,100219.06
2018-08-14T05:02:33.415Z,100226.50
2018-08-14T05:05:37.827Z,100220.75
2018-08-14T05:08:42.208Z,100222.50
2018-08-14T05:11:46.569Z,100225.06
2018-08-14T05:14:50.884Z,100228.07
2018-08-14T05:17:55.284Z,100233.20
2018-08-14T05:20:59.612Z,100236.64
2018-08-14T05:24:03.934Z,100238.33
2018-08-14T05:27:09.178Z,100237.00
2018-08-14T05:30:16.471Z,100240.37
2018-08-14T05:33:20.754Z,100238.07
2018-08-14T05:36:25.125Z,100244.19
2018-08-14T05:39:29.452Z,100242.81
2018-08-14T05:42:33.860Z,100250.20
2018-08-14T05:45:38.303Z,100240.94
2018-08-14T05:48:42.689Z,100248.76
2018-08-14T05:51:47.581Z,100247.84
2018-08-14T05:54:51.913Z,100248.23
2018-08-14T05:57:56.292Z,100255.19
2018-08-14T06:01:00.709Z,100253.34
2018-08-14T06:04:05.244Z,100260.70
2018-08-14T06:07:09.900Z,100266.28
2018-08-14T06:10:14.264Z,100268.38
2018-08-14T06:13:18.600Z,100268.23
2018-08-14T06:16:22.887Z,100273.47
2018-08-14T06:19:27.173Z,100266.39
2018-08-14T06:22:31.601Z,100264.99
2018-08-14T06:25:35.942Z,100274.98
2018-08-14T06:28:40.292Z,100269.20
2018-08-14T06:31:44.524Z,100278.32
2018-08-14T06:34:48.926Z,100281.36
2018-08-14T06:37:53.237Z,100282.27
2018-08-14T06:40:57.570Z,100284.83
2018-08-14T06:44:01.881Z,100289.14
2018-08-14T06:47:06.201Z,100296.42
2018-08-14T06:50:14.685Z,100287.45
2018-08-14T06:53:19.072Z,100297.66
2018-08-14T06:56:23.409Z,100298.23
2018-08-14T06:59:27.738Z,100299.69
2018-08-14T07:02:32.094Z,100305.66
2018-08-14T07:05:36.352Z,100306.93
2018-08-14T07:08:40.758Z,100310.42
2018-08-14T07:11:45.176Z,100309.50
2018-08-14T07:14:49.579Z,100314.45
2018-08-14T07:17:54.024Z,100313.44
2018-08-14T07:20:58.446Z,100317.64
2018-08-14T07:24:03.094Z,100322.83
2018-08-14T07:27:07.376Z,100325.13
2018-08-14T07:30:15.296Z,100324.69
2018-08-14T07:33:19.703Z,100318.77
2018-08-14T07:36:24.155Z,100327.83
2018-08-14T07:39:29.128Z,100330.47
2018-08-14T07:42:33.453Z,100336.66
2018-08-14T07:45:37.921Z,100333.00
2018-08-14T07:48:42.325Z,100334.12
2018-08-14T07:51:46.580Z,100340.02
2018-08-14T07:54:50.951Z,100340.88
2018-08-14T07:57:55.307Z,100344.84
2018-08-14T08:00:59.637Z,100346.19
2018-08-14T08:04:04.025Z,100348.25
2018-08-14T08:07:08.358Z,100349.23
2018-08-14T08:10:14.806Z,100350.22
2018-08-14T08:13:19.193Z,100355.67
2018-08-14T08:16:23.523Z,100362.22
2018-08-14T08:19:27.842Z,100362.92
2018-08-14T08:22:32.141Z,100376.20
2018-08-14T08:25:36.445Z,100382.77
2018-08-14T08:28:40.817Z,100383.22
2018-08-14T08:31:45.168Z,100378.34
2018-08-14T08:34:49.615Z,100371.17
2018-08-14T08:37:54.006Z,100369.67
2018-08-14T08:40:58.424Z,100368.59
2018-08-14T08:44:02.734Z,100374.52
2018-08-14T08:47:07.047Z,100380.62
2018-08-14T08:50:14.053Z,100376.10
2018-08-14T08:53:20.337Z,100387.70
2018-08-14T08:56:24.657Z,100389.25
2018-08-14T08:59:29.150Z,100392.08
2018-08-14T09:02:33.575Z,100394.86
2018-08-14T09:05:38.053Z,100399.52
2018-08-14T09:08:42.829Z,100401.06
2018-08-14T09:11:47.243Z,100396.44
2018-08-14T09:14:51.618Z,100402.05
2018-08-14T09:17:55.993Z,100403.61
2018-08-14T09:21:00.271Z,100404.73
2018-08-14T09:24:04.958Z,100405.72
2018-08-14T09:27:09.370Z,100404.04
2018-08-14T09:30:16.894Z,100413.75
2018-08-14T09:33:21.239Z,100415.86
2018-08-14T09:36:25.657Z,100409.42
2018-08-14T09:39:30.104Z,100414.11
2018-08-14T09:42:34.415Z,100415.89
2018-08-14T09:45:38.773Z,100419.24
2018-08-14T09:48:43.114Z,100420.10
2018-08-14T09:51:47.502Z,100423.67
2018-08-14T09:54:51.782Z,100425.86
2018-08-14T09:57:56.137Z,100426.47
2018-08-14T10:01:05.399Z,100432.11
2018-08-14T10:04:15.089Z,100435.56
2018-08-14T10:07:20.205Z,100432.39
2018-08-14T10:10:24.578Z,100443.27
2018-08-14T10:13:29.002Z,100443.06
2018-08-14T10:16:33.371Z,100444.61
2018-08-14T10:19:37.935Z,100444.73
2018-08-14T10:22:42.259Z,100445.20
2018-08-14T10:25:46.770Z,100446.87
2018-08-14T10:28:51.132Z,100451.75
2018-08-14T10:31:55.528Z,100450.54
2018-08-14T10:34:59.900Z,100461.25
2018-08-14T10:38:04.427Z,100455.66
2018-08-14T10:41:08.806Z,100463.91
2018-08-14T10:44:13.172Z,100469.10
2018-08-14T10:47:17.495Z,100472.03
2018-08-14T10:50:24.350Z,100480.69
2018-08-14T10:53:28.707Z,100482.92
2018-08-14T10:56:33.013Z,100484.59
2018-08-14T10:59:37.493Z,100484.70
2018-08-14T11:02:41.917Z,100482.91
2018-08-14T11:05:46.371Z,100482.92
2018-08-14T11:08:50.761Z,100485.77
2018-08-14T11:12:15.175Z,100490.59
2018-08-14T11:15:19.483Z,100497.09
2018-08-14T11:18:23.839Z,100492.46
2018-08-14T11:21:28.179Z,100501.03
2018-08-14T11:24:32.820Z,100507.77
2018-08-14T11:27:37.647Z,100495.42
2018-08-14T11:30:42.309Z,100502.14
2018-08-14T11:33:46.647Z,100496.27
2018-08-14T11:36:50.989Z,100499.38
2018-08-14T11:39:55.385Z,100497.08
2018-08-14T11:42:59.724Z,100504.63
2018-08-14T11:46:03.988Z,100512.77
2018-08-14T11:49:08.376Z,100514.98
2018-08-14T11:52:12.662Z,100512.39
2018-08-14T11:55:18.170Z,100513.80
2018-08-14T11:58:22.629Z,100519.84
2018-08-14T12:01:27.114Z,100522.98
2018-08-14T12:04:31.464Z,100517.34
2018-08-14T12:07:35.825Z,100526.20
2018-08-14T12:10:40.189Z,100525.36
2018-08-14T12:13:44.576Z,100541.08
2018-08-14T12:16:48.996Z,100532.87
2018-08-14T12:19:53.384Z,100548.43
2018-08-14T12:22:57.796Z,100541.31
2018-08-14T12:26:03.757Z,100548.44
2018-08-14T12:29:08.306Z,100550.44
2018-08-14T12:32:12.719Z,100544.56
2018-08-14T12:35:17.367Z,100554.20
2018-08-14T12:38:21.880Z,100555.73
2018-08-14T12:41:26.205Z,100565.78
2018-08-14T12:44:30.503Z,100564.66
2018-08-14T12:47:34.769Z,100573.22
2018-08-14T12:50:39.157Z,100579.66
2018-08-14T12:53:43.569Z,100580.88
2018-08-14T12:56:47.853Z,100586.91
2018-08-14T12:59:52.210Z,100589.91
2018-08-14T13:02:56.831Z,100586.48
2018-08-14T13:06:01.266Z,100586.28
2018-08-14T13:09:09.875Z,100600.83
2018-08-14T13:12:14.186Z,100594.51
2018-08-14T13:15:18.528Z,100589.37
2018-08-14T13:18:22.942Z,100588.70
2018-08-14T13:21:27.336Z,100601.17
2018-08-14T13:24:31.705Z,100607.75
2018-08-14T13:27:36.207Z,100603.31
2018-08-14T13:30:41.063Z,100601.87
2018-08-14T13:33:45.357Z,100615.50
2018-08-14T13:36:49.833Z,100628.94
2018-08-14T13:39:54.168Z,100624.33
2018-08-14T13:42:59.356Z,100623.40
2018-08-14T13:46:03.667Z,100625.93
2018-08-14T13:49:08.180Z,100636.86
2018-08-14T13:52:12.580Z,100630.83
2018-08-14T13:55:19.552Z,100630.16
2018-08-14T13:58:23.894Z,100641.58
2018-08-14T14:01:28.151Z,100637.80
2018-08-14T14:04:32.533Z,100650.03
2018-08-14T14:07:37.189Z,100649.27
2018-08-14T14:10:41.525Z,100654.65
2018-08-14T14:13:45.907Z,100650.00
2018-08-14T14:16:50.325Z,100657.87
2018-08-14T14:19:54.754Z,100662.02
2018-08-14T14:22:59.134Z,100659.64
2018-08-14T14:26:03.623Z,100668.34
2018-08-14T14:29:08.042Z,100663.75
2018-08-14T14:32:12.406Z,100665.67
2018-08-14T14:35:16.858Z,100670.95
2018-08-14T14:38:21.177Z,100670.09
2018-08-14T14:41:25.514Z,100674.11
2018-08-14T14:44:29.842Z,100681.29
2018-08-14T14:47:34.169Z,100684.13
2018-08-14T14:50:38.562Z,100683.58
2018-08-14T14:53:42.989Z,100684.45
2018-08-14T14:56:47.361Z,100689.15
2018-08-14T14:59:51.723Z,100679.76
2018-08-14T15:02:57.497Z,100695.16
2018-08-14T15:06:01.866Z,100697.09
2018-08-14T15:09:10.776Z,100695.86
2018-08-14T15:12:15.163Z,100702.84
2018-08-14T15:15:19.457Z,100694.55
2018-08-14T15:18:23.745Z,100698.80
2018-08-14T15:21:28.054Z,100705.02
2018-08-14T15:24:32.550Z,100704.69
2018-08-14T15:27:36.850Z,100705.97
2018-08-14T15:30:41.331Z,100712.66
2018-08-14T15:33:45.780Z,100709.27
2018-08-14T15:36:52.890Z,100709.30
2018-08-14T15:39:57.285Z,100718.08
2018-08-14T15:43:01.577Z,100718.81
2018-08-14T15:46:07.446Z,100717.62
2018-08-14T15:49:12.408Z,100715.85
2018-08-14T15:52:16.675Z,100721.20
2018-08-14T15:55:21.016Z,100724.63
2018-08-14T15:58:25.361Z,100722.45
2018-08-14T16:01:31.690Z,100732.33
2018-08-14T16:04:36.057Z,100738.37
2018-08-14T16:07:40.457Z,100740.88
2018-08-14T16:10:44.755Z,100744.23
2018-08-14T16:13:49.102Z,100743.27
2018-08-14T16:16:53.522Z,100749.76
2018-08-14T16:19:57.955Z,100750.64
2018-08-14T16:23:02.298Z,100759.72
2018-08-14T16:26:06.819Z,100755.14
2018-08-14T16:29:11.322Z,100764.63
2018-08-14T16:32:15.761Z,100765.02
2018-08-14T16:35:20.218Z,100766.77
2018-08-14T16:38:24.679Z,100765.76
2018-08-14T16:41:28.984Z,100768.78
2018-08-14T16:44:33.423Z,100775.25
2018-08-14T16:47:37.726Z,100773.63
2018-08-14T16:50:43.154Z,100777.27
2018-08-14T16:53:51.217Z,100782.34
2018-08-14T16:56:56.661Z,100781.48
2018-08-14T17:00:01.063Z,100781.88
2018-08-14T17:03:07.505Z,100786.92
2018-08-14T17:06:11.783Z,100801.23
2018-08-14T17:09:16.286Z,100801.52
2018-08-14T17:12:20.686Z,100798.07
2018-08-14T17:15:25.662Z,100797.50
2018-08-14T17:18:30.126Z,100799.37
2018-08-14T17:21:32.884Z,100800.23
2018-08-14T17:24:37.209Z,100803.08
2018-08-14T17:27:45.154Z,100802.55
2018-08-14T17:30:50.826Z,100801.50
2018-08-14T17:33:55.209Z,100810.11
2018-08-14T17:36:59.652Z,100814.04
2018-08-14T17:40:04.015Z,100810.20
2018-08-14T17:43:08.360Z,100815.55
2018-08-14T17:46:12.829Z,100822.55
2018-08-14T17:49:17.213Z,100819.42
2018-08-14T17:52:21.659Z,100823.11
2018-08-14T17:55:26.444Z,100817.83
2018-08-14T17:58:30.786Z,100817.53
2018-08-14T18:01:35.166Z,100819.50
2018-08-14T18:04:39.516Z,100824.41
2018-08-14T18:07:43.862Z,100824.91
2018-08-14T18:10:48.182Z,100826.38
2018-08-14T18:13:52.504Z,100819.97
2018-08-14T18:16:56.813Z,100829.41
2018-08-14T18:20:01.369Z,100834.47
2018-08-14T18:23:05.526Z,100837.73
2018-08-14T18:26:09.841Z,100842.75
2018-08-14T18:29:14.199Z,100849.92
2018-08-14T18:32:18.769Z,100857.17
2018-08-14T18:35:23.133Z,100865.09
2018-08-14T18:38:27.513Z,100863.27
2018-08-14T18:41:31.897Z,100863.23
2018-08-14T18:44:36.304Z,100864.94
2018-08-14T18:47:41.107Z,100869.70
2018-08-14T18:50:45.485Z,100881.23
2018-08-14T18:53:49.897Z,100882.57
2018-08-14T18:56:54.280Z,100882.63
2018-08-14T18:59:58.968Z,100880.92
2018-08-14T19:03:03.456Z,100885.34
2018-08-14T19:06:07.891Z,100885.02
2018-08-14T19:09:12.401Z,100878.82
2018-08-14T19:12:16.823Z,100887.34
2018-08-14T19:15:24.302Z,100890.98
2018-08-14T19:18:28.651Z,100901.63
2018-08-14T19:21:33.105Z,100899.22
2018-08-14T19:24:37.488Z,100904.69
2018-08-14T19:27:42.653Z,100905.67
2018-08-14T19:30:47.171Z,100904.87
2018-08-14T19:33:52.770Z,100908.48
2018-08-14T19:36:57.295Z,100910.27
2018-08-14T19:40:01.740Z,100912.43
2018-08-14T19:43:06.144Z,100918.17
2018-08-14T19:46:10.494Z,100919.59
2018-08-14T19:49:14.897Z,100918.17
2018-08-14T19:52:19.319Z,100922.17
2018-08-14T19:55:23.746Z,100924.05
2018-08-14T19:58:28.166Z,100924.86
2018-08-14T20:01:33.377Z,100923.55
2018-08-14T20:04:37.845Z,100926.52
2018-08-14T20:07:42.263Z,100930.08
2018-08-14T20:10:46.568Z,100928.91
2018-08-14T20:13:50.947Z,100936.01
2018-08-14T20:16:55.297Z,100936.88
2018-08-14T20:19:59.731Z,100942.15
2018-08-14T20:23:04.175Z,100941.69
2018-08-14T20:26:08.561Z,100947.47
2018-08-14T20:29:12.881Z,100946.15
2018-08-14T20:32:17.241Z,100950.09
2018-08-14T20:35:21.603Z,100954.09
2018-08-14T20:38:25.989Z,100951.11
2018-08-14T20:41:30.360Z,100960.83
2018-08-14T20:44:34.906Z,100962.70
2018-08-14T20:47:39.259Z,100967.10
2018-08-14T20:50:43.622Z,100972.38
2018-08-14T20:53:48.062Z,100958.29
2018-08-14T20:56:52.377Z,100958.40
2018-08-14T20:59:56.944Z,100970.78
2018-08-14T21:03:01.308Z,100974.38
2018-08-14T21:06:05.729Z,100978.40
2018-08-14T21:09:10.516Z,100993.31
2018-08-14T21:12:14.905Z,101001.22
2018-08-14T21:15:24.576Z,101000.31
2018-08-14T21:18:29.070Z,101006.97
2018-08-14T21:21:33.522Z,101011.89
2018-08-14T21:24:37.851Z,101018.46
2018-08-14T21:27:42.221Z,101020.61
2018-08-14T21:30:46.716Z,101020.19
2018-08-14T21:33:51.160Z,101028.50
2018-08-14T21:36:55.496Z,101028.09
2018-08-14T21:39:59.889Z,101029.78
2018-08-14T21:43:04.379Z,101031.20
2018-08-14T21:46:08.832Z,101038.67
2018-08-14T21:49:13.238Z,101044.87
2018-08-14T21:52:17.622Z,101038.80
2018-08-14T21:55:22.008Z,101041.02
2018-08-14T21:58:26.391Z,101052.91
2018-08-14T22:01:30.650Z,101057.80
2018-08-14T22:04:35.051Z,101060.87
2018-08-14T22:07:39.455Z,101068.36
2018-08-14T22:10:43.829Z,101073.64
2018-08-14T22:13:48.316Z,101071.88
2018-08-14T22:16:52.695Z,101071.43
2018-08-14T22:19:57.070Z,101077.58
2018-08-14T22:23:01.364Z,101082.86
2018-08-14T22:26:05.918Z,101084.64
2018-08-14T22:29:10.225Z,101087.70
2018-08-14T22:32:14.492Z,101094.74
2018-08-14T22:35:18.898Z,101092.59
2018-08-14T22:38:23.284Z,101095.20
2018-08-14T22:41:27.562Z,101093.91
2018-08-14T22:44:31.929Z,101094.37
2018-08-14T22:47:36.217Z,101099.61
2018-08-14T22:50:40.561Z,101096.55
2018-08-14T22:53:44.835Z,101098.36
2018-08-14T22:56:49.186Z,101097.92
2018-08-14T22:59:53.530Z,101101.02
2018-08-14T23:02:57.833Z,101101.45
2018-08-14T23:06:02.135Z,101106.28
2018-08-14T23:09:08.765Z,101107.17
2018-08-14T23:12:13.024Z,101106.70
2018-08-14T23:15:17.373Z,101107.15
2018-08-14T23:18:21.665Z,101109.77
2018-08-14T23:21:26.027Z,101116.33
2018-08-14T23:24:30.296Z,101115.02
2018-08-14T23:27:34.672Z,101110.66
2018-08-14T23:30:38.952Z,101116.31
2018-08-14T23:33:43.259Z,101113.25
2018-08-14T23:36:47.598Z,101117.20
2018-08-14T23:39:51.900Z,101122.04
2018-08-14T23:42:56.181Z,101119.41
2018-08-14T23:46:00.463Z,101124.23
2018-08-14T23:49:04.850Z,101129.47
2018-08-14T23:52:09.138Z,101130.35
2018-08-14T23:55:13.516Z,101130.35
2018-08-14T23:58:17.849Z,101134.31
